sensor_id;sensor_type;location;lat;lon;timestamp;P1;durP1;ratioP1;P2;durP2;ratioP2
17997;SDS011;9124;48.144;17.098;2023-09-19T00:00:15;3.42;;;1.30;;
17997;SDS011;9124;48.144;17.098;2023-09-19T00:04:44;2.58;;;1.17;;
17997;SDS011;9124;48.144;17.098;2023-09-19T00:09:11;4.07;;;1.38;;
17997;SDS011;9124;48.144;17.098;2023-09-19T00:13:37;2.17;;;1.38;;
17997;SDS011;9124;48.144;17.098;2023-09-19T00:18:04;2.83;;;1.02;;
17997;SDS011;9124;48.144;17.098;2023-09-19T00:22:34;1.98;;;1.23;;
17997;SDS011;9124;48.144;17.098;2023-09-19T00:27:04;7.97;;;1.80;;
17997;SDS011;9124;48.144;17.098;2023-09-19T00:31:31;2.13;;;1.40;;
17997;SDS011;9124;48.144;17.098;2023-09-19T00:35:57;2.17;;;1.20;;
17997;SDS011;9124;48.144;17.098;2023-09-19T00:40:25;5.72;;;1.17;;
17997;SDS011;9124;48.144;17.098;2023-09-19T00:44:51;1.00;;;0.90;;
17997;SDS011;9124;48.144;17.098;2023-09-19T00:49:18;2.13;;;1.08;;
17997;SDS011;9124;48.144;17.098;2023-09-19T00:53:47;2.45;;;0.80;;
17997;SDS011;9124;48.144;17.098;2023-09-19T00:58:15;3.28;;;1.17;;
17997;SDS011;9124;48.144;17.098;2023-09-19T01:02:43;2.72;;;0.82;;
17997;SDS011;9124;48.144;17.098;2023-09-19T01:07:10;0.70;;;0.70;;
17997;SDS011;9124;48.144;17.098;2023-09-19T01:11:43;1.00;;;0.88;;
17997;SDS011;9124;48.144;17.098;2023-09-19T01:16:23;1.33;;;0.80;;
17997;SDS011;9124;48.144;17.098;2023-09-19T01:26:04;2.58;;;1.20;;
17997;SDS011;9124;48.144;17.098;2023-09-19T01:30:51;2.15;;;1.05;;
17997;SDS011;9124;48.144;17.098;2023-09-19T01:35:24;2.25;;;1.15;;
17997;SDS011;9124;48.144;17.098;2023-09-19T01:39:52;4.18;;;1.30;;
17997;SDS011;9124;48.144;17.098;2023-09-19T01:44:47;1.58;;;1.10;;
17997;SDS011;9124;48.144;17.098;2023-09-19T01:49:38;1.83;;;1.45;;
17997;SDS011;9124;48.144;17.098;2023-09-19T01:54:18;2.83;;;1.10;;
17997;SDS011;9124;48.144;17.098;2023-09-19T01:59:02;1.30;;;1.20;;
17997;SDS011;9124;48.144;17.098;2023-09-19T02:03:36;2.63;;;1.20;;
17997;SDS011;9124;48.144;17.098;2023-09-19T02:08:04;1.40;;;1.25;;
17997;SDS011;9124;48.144;17.098;2023-09-19T02:12:32;1.23;;;1.13;;
17997;SDS011;9124;48.144;17.098;2023-09-19T02:17:03;0.90;;;0.88;;
17997;SDS011;9124;48.144;17.098;2023-09-19T02:21:33;2.03;;;1.30;;
17997;SDS011;9124;48.144;17.098;2023-09-19T02:26:00;1.10;;;1.00;;
17997;SDS011;9124;48.144;17.098;2023-09-19T02:30:26;1.35;;;1.13;;
17997;SDS011;9124;48.144;17.098;2023-09-19T02:34:54;3.70;;;1.17;;
17997;SDS011;9124;48.144;17.098;2023-09-19T02:39:21;0.90;;;0.90;;
17997;SDS011;9124;48.144;17.098;2023-09-19T02:43:49;1.00;;;0.90;;
17997;SDS011;9124;48.144;17.098;2023-09-19T02:48:16;3.72;;;0.73;;
17997;SDS011;9124;48.144;17.098;2023-09-19T02:52:44;1.17;;;1.08;;
17997;SDS011;9124;48.144;17.098;2023-09-19T02:57:14;1.48;;;0.95;;
17997;SDS011;9124;48.144;17.098;2023-09-19T03:01:43;1.48;;;1.02;;
17997;SDS011;9124;48.144;17.098;2023-09-19T03:06:14;3.05;;;0.95;;
17997;SDS011;9124;48.144;17.098;2023-09-19T03:10:41;2.40;;;1.23;;
17997;SDS011;9124;48.144;17.098;2023-09-19T03:15:08;2.00;;;1.42;;
17997;SDS011;9124;48.144;17.098;2023-09-19T03:19:35;1.13;;;1.13;;
17997;SDS011;9124;48.144;17.098;2023-09-19T03:24:06;1.63;;;1.20;;
17997;SDS011;9124;48.144;17.098;2023-09-19T03:28:33;2.67;;;1.25;;
17997;SDS011;9124;48.144;17.098;2023-09-19T03:33:00;4.57;;;1.65;;
17997;SDS011;9124;48.144;17.098;2023-09-19T03:37:27;2.35;;;1.40;;
17997;SDS011;9124;48.144;17.098;2023-09-19T03:41:54;1.27;;;0.88;;
17997;SDS011;9124;48.144;17.098;2023-09-19T03:46:20;1.50;;;1.27;;
17997;SDS011;9124;48.144;17.098;2023-09-19T03:50:49;1.38;;;1.20;;
17997;SDS011;9124;48.144;17.098;2023-09-19T03:55:16;8.95;;;1.50;;
17997;SDS011;9124;48.144;17.098;2023-09-19T03:59:44;2.85;;;1.00;;
17997;SDS011;9124;48.144;17.098;2023-09-19T04:04:12;8.52;;;1.38;;
17997;SDS011;9124;48.144;17.098;2023-09-19T04:08:40;2.97;;;1.20;;
17997;SDS011;9124;48.144;17.098;2023-09-19T04:13:07;1.23;;;1.13;;
17997;SDS011;9124;48.144;17.098;2023-09-19T04:17:33;1.33;;;1.23;;
17997;SDS011;9124;48.144;17.098;2023-09-19T04:22:00;1.88;;;1.35;;
17997;SDS011;9124;48.144;17.098;2023-09-19T04:26:27;2.20;;;1.55;;
17997;SDS011;9124;48.144;17.098;2023-09-19T04:30:53;5.60;;;1.52;;
17997;SDS011;9124;48.144;17.098;2023-09-19T04:35:21;1.45;;;1.30;;
17997;SDS011;9124;48.144;17.098;2023-09-19T04:39:47;3.22;;;1.58;;
17997;SDS011;9124;48.144;17.098;2023-09-19T04:44:13;1.95;;;1.30;;
17997;SDS011;9124;48.144;17.098;2023-09-19T04:48:40;4.03;;;1.20;;
17997;SDS011;9124;48.144;17.098;2023-09-19T04:53:07;1.55;;;1.20;;
17997;SDS011;9124;48.144;17.098;2023-09-19T04:57:33;1.23;;;1.00;;
17997;SDS011;9124;48.144;17.098;2023-09-19T05:02:02;1.92;;;1.50;;
17997;SDS011;9124;48.144;17.098;2023-09-19T05:06:28;3.42;;;1.42;;
17997;SDS011;9124;48.144;17.098;2023-09-19T05:10:56;2.80;;;1.42;;
17997;SDS011;9124;48.144;17.098;2023-09-19T05:15:22;4.75;;;2.00;;
17997;SDS011;9124;48.144;17.098;2023-09-19T05:19:49;2.03;;;1.65;;
17997;SDS011;9124;48.144;17.098;2023-09-19T05:24:15;2.20;;;1.45;;
17997;SDS011;9124;48.144;17.098;2023-09-19T05:28:42;1.80;;;1.67;;
17997;SDS011;9124;48.144;17.098;2023-09-19T05:33:09;2.53;;;1.38;;
17997;SDS011;9124;48.144;17.098;2023-09-19T05:37:35;2.58;;;1.35;;
17997;SDS011;9124;48.144;17.098;2023-09-19T05:42:02;2.63;;;1.75;;
17997;SDS011;9124;48.144;17.098;2023-09-19T05:46:29;1.70;;;1.60;;
17997;SDS011;9124;48.144;17.098;2023-09-19T05:50:56;2.45;;;1.60;;
17997;SDS011;9124;48.144;17.098;2023-09-19T05:55:22;3.38;;;1.83;;
17997;SDS011;9124;48.144;17.098;2023-09-19T05:59:51;3.70;;;2.17;;
17997;SDS011;9124;48.144;17.098;2023-09-19T06:04:18;4.00;;;1.58;;
17997;SDS011;9124;48.144;17.098;2023-09-19T06:08:45;4.20;;;1.80;;
17997;SDS011;9124;48.144;17.098;2023-09-19T06:13:11;3.25;;;1.90;;
17997;SDS011;9124;48.144;17.098;2023-09-19T06:17:38;1.70;;;1.60;;
17997;SDS011;9124;48.144;17.098;2023-09-19T06:22:04;2.00;;;1.80;;
17997;SDS011;9124;48.144;17.098;2023-09-19T06:26:30;1.70;;;1.60;;
17997;SDS011;9124;48.144;17.098;2023-09-19T06:30:57;3.92;;;1.70;;
17997;SDS011;9124;48.144;17.098;2023-09-19T06:35:24;2.65;;;1.58;;
17997;SDS011;9124;48.144;17.098;2023-09-19T06:39:52;1.90;;;1.80;;
17997;SDS011;9124;48.144;17.098;2023-09-19T06:44:18;3.90;;;1.95;;
17997;SDS011;9124;48.144;17.098;2023-09-19T06:48:45;2.42;;;1.80;;
17997;SDS011;9124;48.144;17.098;2023-09-19T06:53:13;3.47;;;1.73;;
17997;SDS011;9124;48.144;17.098;2023-09-19T06:57:40;1.75;;;1.65;;
17997;SDS011;9124;48.144;17.098;2023-09-19T07:02:08;2.78;;;2.00;;
17997;SDS011;9124;48.144;17.098;2023-09-19T07:06:35;3.97;;;1.70;;
17997;SDS011;9124;48.144;17.098;2023-09-19T07:11:01;1.80;;;1.70;;
17997;SDS011;9124;48.144;17.098;2023-09-19T07:15:28;3.63;;;2.10;;
17997;SDS011;9124;48.144;17.098;2023-09-19T07:19:56;1.95;;;1.70;;
17997;SDS011;9124;48.144;17.098;2023-09-19T07:24:24;1.88;;;1.67;;
17997;SDS011;9124;48.144;17.098;2023-09-19T07:28:52;5.75;;;1.70;;
17997;SDS011;9124;48.144;17.098;2023-09-19T07:33:19;4.85;;;4.43;;
17997;SDS011;9124;48.144;17.098;2023-09-19T07:37:46;1.70;;;1.60;;
17997;SDS011;9124;48.144;17.098;2023-09-19T07:42:15;3.65;;;2.03;;
17997;SDS011;9124;48.144;17.098;2023-09-19T07:46:43;3.58;;;1.65;;
17997;SDS011;9124;48.144;17.098;2023-09-19T07:51:10;2.80;;;1.77;;
17997;SDS011;9124;48.144;17.098;2023-09-19T07:55:36;4.18;;;2.25;;
17997;SDS011;9124;48.144;17.098;2023-09-19T08:00:02;2.50;;;2.05;;
17997;SDS011;9124;48.144;17.098;2023-09-19T08:04:36;2.20;;;1.88;;
17997;SDS011;9124;48.144;17.098;2023-09-19T08:09:03;2.20;;;1.60;;
17997;SDS011;9124;48.144;17.098;2023-09-19T08:13:37;1.90;;;1.80;;
17997;SDS011;9124;48.144;17.098;2023-09-19T08:18:11;4.43;;;2.13;;
17997;SDS011;9124;48.144;17.098;2023-09-19T08:22:38;2.05;;;1.88;;
17997;SDS011;9124;48.144;17.098;2023-09-19T08:27:04;3.65;;;2.15;;
17997;SDS011;9124;48.144;17.098;2023-09-19T08:31:34;2.38;;;2.17;;
17997;SDS011;9124;48.144;17.098;2023-09-19T08:36:01;3.58;;;2.10;;
17997;SDS011;9124;48.144;17.098;2023-09-19T08:40:31;7.43;;;2.08;;
17997;SDS011;9124;48.144;17.098;2023-09-19T08:45:08;7.85;;;2.00;;
17997;SDS011;9124;48.144;17.098;2023-09-19T08:49:57;3.60;;;1.80;;
17997;SDS011;9124;48.144;17.098;2023-09-19T08:54:38;2.47;;;2.03;;
17997;SDS011;9124;48.144;17.098;2023-09-19T08:59:07;1.90;;;1.60;;
17997;SDS011;9124;48.144;17.098;2023-09-19T09:03:33;2.20;;;2.00;;
17997;SDS011;9124;48.144;17.098;2023-09-19T09:08:01;6.47;;;2.03;;
17997;SDS011;9124;48.144;17.098;2023-09-19T09:12:29;5.93;;;1.98;;
17997;SDS011;9124;48.144;17.098;2023-09-19T09:16:56;3.17;;;2.17;;
17997;SDS011;9124;48.144;17.098;2023-09-19T09:21:25;2.63;;;2.22;;
17997;SDS011;9124;48.144;17.098;2023-09-19T09:25:55;3.55;;;2.05;;
17997;SDS011;9124;48.144;17.098;2023-09-19T09:30:35;2.85;;;2.10;;
17997;SDS011;9124;48.144;17.098;2023-09-19T09:35:07;2.97;;;2.03;;
17997;SDS011;9124;48.144;17.098;2023-09-19T09:39:40;1.75;;;1.65;;
17997;SDS011;9124;48.144;17.098;2023-09-19T09:44:38;2.13;;;1.42;;
17997;SDS011;9124;48.144;17.098;2023-09-19T09:49:05;2.80;;;1.63;;
17997;SDS011;9124;48.144;17.098;2023-09-19T09:53:49;2.15;;;1.92;;
17997;SDS011;9124;48.144;17.098;2023-09-19T09:58:18;1.98;;;1.77;;
17997;SDS011;9124;48.144;17.098;2023-09-19T10:02:46;1.70;;;1.42;;
17997;SDS011;9124;48.144;17.098;2023-09-19T10:07:23;3.63;;;2.13;;
17997;SDS011;9124;48.144;17.098;2023-09-19T10:12:07;3.63;;;1.83;;
17997;SDS011;9124;48.144;17.098;2023-09-19T10:16:44;2.40;;;2.15;;
17997;SDS011;9124;48.144;17.098;2023-09-19T10:21:13;3.25;;;2.03;;
17997;SDS011;9124;48.144;17.098;2023-09-19T10:25:40;2.65;;;1.90;;
17997;SDS011;9124;48.144;17.098;2023-09-19T10:30:08;3.15;;;2.22;;
17997;SDS011;9124;48.144;17.098;2023-09-19T10:34:36;2.47;;;1.98;;
17997;SDS011;9124;48.144;17.098;2023-09-19T10:39:07;3.33;;;1.88;;
17997;SDS011;9124;48.144;17.098;2023-09-19T10:43:37;4.00;;;1.85;;
17997;SDS011;9124;48.144;17.098;2023-09-19T10:48:05;2.80;;;1.90;;
17997;SDS011;9124;48.144;17.098;2023-09-19T10:52:33;4.10;;;2.05;;
17997;SDS011;9124;48.144;17.098;2023-09-19T10:57:05;4.63;;;1.75;;
17997;SDS011;9124;48.144;17.098;2023-09-19T11:06:18;3.55;;;1.88;;
17997;SDS011;9124;48.144;17.098;2023-09-19T11:10:46;2.70;;;1.83;;
17997;SDS011;9124;48.144;17.098;2023-09-19T11:20:18;1.85;;;1.67;;
17997;SDS011;9124;48.144;17.098;2023-09-19T11:24:51;2.25;;;1.50;;
17997;SDS011;9124;48.144;17.098;2023-09-19T11:34:27;3.78;;;1.83;;
17997;SDS011;9124;48.144;17.098;2023-09-19T11:38:59;1.70;;;1.38;;
17997;SDS011;9124;48.144;17.098;2023-09-19T11:43:34;1.77;;;1.42;;
17997;SDS011;9124;48.144;17.098;2023-09-19T11:48:01;1.92;;;1.83;;
17997;SDS011;9124;48.144;17.098;2023-09-19T11:52:32;1.67;;;1.58;;
17997;SDS011;9124;48.144;17.098;2023-09-19T11:57:02;1.63;;;1.50;;
17997;SDS011;9124;48.144;17.098;2023-09-19T12:01:30;1.60;;;1.48;;
17997;SDS011;9124;48.144;17.098;2023-09-19T12:06:00;2.00;;;1.40;;
17997;SDS011;9124;48.144;17.098;2023-09-19T12:10:28;4.07;;;1.83;;
17997;SDS011;9124;48.144;17.098;2023-09-19T12:14:54;1.73;;;1.60;;
17997;SDS011;9124;48.144;17.098;2023-09-19T12:19:29;3.10;;;1.50;;
17997;SDS011;9124;48.144;17.098;2023-09-19T12:24:04;2.22;;;1.33;;
17997;SDS011;9124;48.144;17.098;2023-09-19T12:28:45;3.67;;;1.73;;
17997;SDS011;9124;48.144;17.098;2023-09-19T12:33:19;2.67;;;1.45;;
17997;SDS011;9124;48.144;17.098;2023-09-19T12:37:53;2.83;;;1.30;;
17997;SDS011;9124;48.144;17.098;2023-09-19T12:42:21;2.25;;;1.40;;
17997;SDS011;9124;48.144;17.098;2023-09-19T12:46:49;1.15;;;1.15;;
17997;SDS011;9124;48.144;17.098;2023-09-19T12:51:16;2.53;;;1.90;;
17997;SDS011;9124;48.144;17.098;2023-09-19T12:55:53;1.85;;;1.17;;
17997;SDS011;9124;48.144;17.098;2023-09-19T13:00:31;1.40;;;1.30;;
17997;SDS011;9124;48.144;17.098;2023-09-19T13:05:03;1.13;;;1.10;;
17997;SDS011;9124;48.144;17.098;2023-09-19T13:09:32;1.75;;;1.35;;
17997;SDS011;9124;48.144;17.098;2023-09-19T13:18:48;1.75;;;1.65;;
17997;SDS011;9124;48.144;17.098;2023-09-19T13:23:26;1.83;;;1.50;;
17997;SDS011;9124;48.144;17.098;2023-09-19T13:27:53;2.30;;;1.33;;
17997;SDS011;9124;48.144;17.098;2023-09-19T13:32:21;1.42;;;1.17;;
17997;SDS011;9124;48.144;17.098;2023-09-19T13:36:48;2.15;;;1.55;;
17997;SDS011;9124;48.144;17.098;2023-09-19T13:41:15;2.25;;;1.90;;
17997;SDS011;9124;48.144;17.098;2023-09-19T13:45:42;5.10;;;2.15;;
17997;SDS011;9124;48.144;17.098;2023-09-19T13:50:08;4.22;;;2.53;;
17997;SDS011;9124;48.144;17.098;2023-09-19T13:54:35;3.60;;;2.00;;
17997;SDS011;9124;48.144;17.098;2023-09-19T13:59:01;2.58;;;2.10;;
17997;SDS011;9124;48.144;17.098;2023-09-19T14:03:28;3.35;;;2.20;;
17997;SDS011;9124;48.144;17.098;2023-09-19T14:07:57;3.42;;;2.72;;
17997;SDS011;9124;48.144;17.098;2023-09-19T14:12:25;3.17;;;2.80;;
17997;SDS011;9124;48.144;17.098;2023-09-19T14:16:51;5.22;;;2.70;;
17997;SDS011;9124;48.144;17.098;2023-09-19T14:21:18;3.50;;;2.88;;
17997;SDS011;9124;48.144;17.098;2023-09-19T14:25:45;6.00;;;2.70;;
17997;SDS011;9124;48.144;17.098;2023-09-19T14:30:11;2.53;;;2.28;;
17997;SDS011;9124;48.144;17.098;2023-09-19T14:34:38;3.58;;;1.75;;
17997;SDS011;9124;48.144;17.098;2023-09-19T14:39:08;2.20;;;2.03;;
17997;SDS011;9124;48.144;17.098;2023-09-19T14:43:34;6.30;;;2.50;;
17997;SDS011;9124;48.144;17.098;2023-09-19T14:48:01;4.07;;;2.20;;
17997;SDS011;9124;48.144;17.098;2023-09-19T14:52:30;2.67;;;1.98;;
17997;SDS011;9124;48.144;17.098;2023-09-19T14:56:58;1.80;;;1.67;;
17997;SDS011;9124;48.144;17.098;2023-09-19T15:01:30;2.30;;;2.10;;
17997;SDS011;9124;48.144;17.098;2023-09-19T15:06:01;3.35;;;2.20;;
17997;SDS011;9124;48.144;17.098;2023-09-19T15:10:28;5.60;;;2.45;;
17997;SDS011;9124;48.144;17.098;2023-09-19T15:14:55;4.68;;;2.20;;
17997;SDS011;9124;48.144;17.098;2023-09-19T15:19:22;2.90;;;1.40;;
17997;SDS011;9124;48.144;17.098;2023-09-19T15:23:48;7.15;;;2.17;;
17997;SDS011;9124;48.144;17.098;2023-09-19T15:28:15;2.25;;;1.65;;
17997;SDS011;9124;48.144;17.098;2023-09-19T15:32:41;2.22;;;1.88;;
17997;SDS011;9124;48.144;17.098;2023-09-19T15:37:08;2.15;;;1.88;;
17997;SDS011;9124;48.144;17.098;2023-09-19T15:41:35;1.67;;;1.58;;
17997;SDS011;9124;48.144;17.098;2023-09-19T15:46:03;3.30;;;2.00;;
17997;SDS011;9124;48.144;17.098;2023-09-19T15:50:29;2.65;;;1.80;;
17997;SDS011;9124;48.144;17.098;2023-09-19T15:54:56;1.88;;;1.75;;
17997;SDS011;9124;48.144;17.098;2023-09-19T15:59:22;2.13;;;1.88;;
17997;SDS011;9124;48.144;17.098;2023-09-19T16:03:50;2.13;;;1.85;;
17997;SDS011;9124;48.144;17.098;2023-09-19T16:08:21;2.22;;;2.05;;
17997;SDS011;9124;48.144;17.098;2023-09-19T16:12:48;1.60;;;1.50;;
17997;SDS011;9124;48.144;17.098;2023-09-19T16:17:15;1.83;;;1.73;;
17997;SDS011;9124;48.144;17.098;2023-09-19T16:21:42;2.60;;;2.40;;
17997;SDS011;9124;48.144;17.098;2023-09-19T16:26:09;4.10;;;1.90;;
17997;SDS011;9124;48.144;17.098;2023-09-19T16:30:38;3.38;;;1.65;;
17997;SDS011;9124;48.144;17.098;2023-09-19T16:35:07;2.92;;;2.60;;
17997;SDS011;9124;48.144;17.098;2023-09-19T16:39:35;2.60;;;2.40;;
17997;SDS011;9124;48.144;17.098;2023-09-19T16:44:02;2.83;;;1.65;;
17997;SDS011;9124;48.144;17.098;2023-09-19T16:48:34;6.28;;;4.20;;
17997;SDS011;9124;48.144;17.098;2023-09-19T16:53:01;2.45;;;2.25;;
17997;SDS011;9124;48.144;17.098;2023-09-19T16:57:27;6.07;;;3.40;;
17997;SDS011;9124;48.144;17.098;2023-09-19T17:01:53;3.22;;;2.38;;
17997;SDS011;9124;48.144;17.098;2023-09-19T17:06:22;2.80;;;2.60;;
17997;SDS011;9124;48.144;17.098;2023-09-19T17:10:50;2.42;;;2.10;;
17997;SDS011;9124;48.144;17.098;2023-09-19T17:15:19;2.30;;;2.10;;
17997;SDS011;9124;48.144;17.098;2023-09-19T17:19:48;1.77;;;1.67;;
17997;SDS011;9124;48.144;17.098;2023-09-19T17:24:14;2.58;;;1.70;;
17997;SDS011;9124;48.144;17.098;2023-09-19T17:28:41;3.08;;;1.98;;
17997;SDS011;9124;48.144;17.098;2023-09-19T17:33:08;3.60;;;2.20;;
17997;SDS011;9124;48.144;17.098;2023-09-19T17:37:34;3.53;;;2.90;;
17997;SDS011;9124;48.144;17.098;2023-09-19T17:42:02;3.80;;;2.85;;
17997;SDS011;9124;48.144;17.098;2023-09-19T17:46:30;2.65;;;2.45;;
17997;SDS011;9124;48.144;17.098;2023-09-19T17:51:00;3.00;;;2.78;;
17997;SDS011;9124;48.144;17.098;2023-09-19T17:55:29;3.20;;;2.90;;
17997;SDS011;9124;48.144;17.098;2023-09-19T17:59:55;2.88;;;2.70;;
17997;SDS011;9124;48.144;17.098;2023-09-19T18:04:22;5.47;;;3.20;;
17997;SDS011;9124;48.144;17.098;2023-09-19T18:08:48;3.75;;;3.45;;
17997;SDS011;9124;48.144;17.098;2023-09-19T18:13:14;6.38;;;3.20;;
17997;SDS011;9124;48.144;17.098;2023-09-19T18:17:41;4.00;;;3.70;;
17997;SDS011;9124;48.144;17.098;2023-09-19T18:22:08;4.15;;;3.78;;
17997;SDS011;9124;48.144;17.098;2023-09-19T18:26:34;10.82;;;3.60;;
17997;SDS011;9124;48.144;17.098;2023-09-19T18:31:07;3.80;;;3.47;;
17997;SDS011;9124;48.144;17.098;2023-09-19T18:35:34;3.00;;;2.80;;
17997;SDS011;9124;48.144;17.098;2023-09-19T18:40:01;3.05;;;2.80;;
17997;SDS011;9124;48.144;17.098;2023-09-19T18:44:27;3.13;;;2.72;;
17997;SDS011;9124;48.144;17.098;2023-09-19T18:48:54;2.63;;;2.40;;
17997;SDS011;9124;48.144;17.098;2023-09-19T18:53:21;8.98;;;2.65;;
17997;SDS011;9124;48.144;17.098;2023-09-19T18:57:51;3.35;;;2.63;;
17997;SDS011;9124;48.144;17.098;2023-09-19T19:02:18;4.72;;;2.45;;
17997;SDS011;9124;48.144;17.098;2023-09-19T19:06:46;2.80;;;1.73;;
17997;SDS011;9124;48.144;17.098;2023-09-19T19:11:13;3.15;;;2.13;;
17997;SDS011;9124;48.144;17.098;2023-09-19T19:15:42;4.93;;;2.10;;
17997;SDS011;9124;48.144;17.098;2023-09-19T19:20:08;2.45;;;2.17;;
17997;SDS011;9124;48.144;17.098;2023-09-19T19:24:36;2.10;;;1.90;;
17997;SDS011;9124;48.144;17.098;2023-09-19T19:29:02;3.05;;;1.73;;
17997;SDS011;9124;48.144;17.098;2023-09-19T19:33:29;1.63;;;1.50;;
17997;SDS011;9124;48.144;17.098;2023-09-19T19:37:55;1.50;;;1.40;;
17997;SDS011;9124;48.144;17.098;2023-09-19T19:42:22;4.15;;;1.38;;
17997;SDS011;9124;48.144;17.098;2023-09-19T19:46:49;1.58;;;1.48;;
17997;SDS011;9124;48.144;17.098;2023-09-19T19:51:16;2.00;;;1.48;;
17997;SDS011;9124;48.144;17.098;2023-09-19T19:55:42;4.82;;;1.50;;
17997;SDS011;9124;48.144;17.098;2023-09-19T20:00:09;1.63;;;1.50;;
17997;SDS011;9124;48.144;17.098;2023-09-19T20:04:37;3.92;;;1.42;;
17997;SDS011;9124;48.144;17.098;2023-09-19T20:09:05;4.40;;;1.30;;
17997;SDS011;9124;48.144;17.098;2023-09-19T20:13:32;0.90;;;0.90;;
17997;SDS011;9124;48.144;17.098;2023-09-19T20:18:00;0.95;;;0.95;;
17997;SDS011;9124;48.144;17.098;2023-09-19T20:22:28;1.45;;;1.35;;
17997;SDS011;9124;48.144;17.098;2023-09-19T20:26:54;1.60;;;1.10;;
17997;SDS011;9124;48.144;17.098;2023-09-19T20:31:26;1.30;;;1.15;;
17997;SDS011;9124;48.144;17.098;2023-09-19T20:35:56;4.35;;;1.40;;
17997;SDS011;9124;48.144;17.098;2023-09-19T20:40:24;1.20;;;1.10;;
17997;SDS011;9124;48.144;17.098;2023-09-19T20:44:50;2.40;;;1.30;;
17997;SDS011;9124;48.144;17.098;2023-09-19T20:49:21;2.58;;;1.52;;
17997;SDS011;9124;48.144;17.098;2023-09-19T20:53:50;3.08;;;1.33;;
17997;SDS011;9124;48.144;17.098;2023-09-19T20:58:16;1.63;;;1.52;;
17997;SDS011;9124;48.144;17.098;2023-09-19T21:02:42;1.02;;;1.02;;
17997;SDS011;9124;48.144;17.098;2023-09-19T21:07:11;6.40;;;1.50;;
17997;SDS011;9124;48.144;17.098;2023-09-19T21:11:37;3.00;;;1.42;;
17997;SDS011;9124;48.144;17.098;2023-09-19T21:16:08;5.78;;;1.63;;
17997;SDS011;9124;48.144;17.098;2023-09-19T21:20:40;2.60;;;1.35;;
17997;SDS011;9124;48.144;17.098;2023-09-19T21:25:07;2.55;;;1.08;;
17997;SDS011;9124;48.144;17.098;2023-09-19T21:29:34;1.20;;;1.10;;
17997;SDS011;9124;48.144;17.098;2023-09-19T21:34:00;1.05;;;0.93;;
17997;SDS011;9124;48.144;17.098;2023-09-19T21:38:29;1.45;;;1.30;;
17997;SDS011;9124;48.144;17.098;2023-09-19T21:42:55;2.85;;;1.05;;
17997;SDS011;9124;48.144;17.098;2023-09-19T21:47:21;1.08;;;1.08;;
17997;SDS011;9124;48.144;17.098;2023-09-19T21:51:48;3.92;;;1.10;;
17997;SDS011;9124;48.144;17.098;2023-09-19T21:56:14;1.55;;;1.20;;
17997;SDS011;9124;48.144;17.098;2023-09-19T22:00:43;1.58;;;1.23;;
17997;SDS011;9124;48.144;17.098;2023-09-19T22:05:12;2.60;;;1.30;;
17997;SDS011;9124;48.144;17.098;2023-09-19T22:09:38;1.42;;;1.20;;
17997;SDS011;9124;48.144;17.098;2023-09-19T22:14:05;1.33;;;1.23;;
17997;SDS011;9124;48.144;17.098;2023-09-19T22:18:33;4.45;;;1.23;;
17997;SDS011;9124;48.144;17.098;2023-09-19T22:22:59;2.85;;;1.20;;
17997;SDS011;9124;48.144;17.098;2023-09-19T22:27:26;1.48;;;1.20;;
17997;SDS011;9124;48.144;17.098;2023-09-19T22:31:52;5.45;;;1.58;;
17997;SDS011;9124;48.144;17.098;2023-09-19T22:36:22;1.45;;;1.20;;
17997;SDS011;9124;48.144;17.098;2023-09-19T22:41:02;1.77;;;1.35;;
17997;SDS011;9124;48.144;17.098;2023-09-19T22:45:36;12.82;;;1.70;;
17997;SDS011;9124;48.144;17.098;2023-09-19T22:50:02;1.60;;;1.30;;
17997;SDS011;9124;48.144;17.098;2023-09-19T22:54:32;2.35;;;1.17;;
17997;SDS011;9124;48.144;17.098;2023-09-19T22:59:01;1.77;;;1.05;;
17997;SDS011;9124;48.144;17.098;2023-09-19T23:03:29;1.27;;;1.17;;
17997;SDS011;9124;48.144;17.098;2023-09-19T23:07:57;1.13;;;0.93;;
17997;SDS011;9124;48.144;17.098;2023-09-19T23:12:24;0.90;;;0.90;;
17997;SDS011;9124;48.144;17.098;2023-09-19T23:16:50;0.98;;;0.98;;
17997;SDS011;9124;48.144;17.098;2023-09-19T23:21:25;4.43;;;1.02;;
17997;SDS011;9124;48.144;17.098;2023-09-19T23:25:53;3.92;;;1.25;;
17997;SDS011;9124;48.144;17.098;2023-09-19T23:30:19;1.30;;;1.23;;
17997;SDS011;9124;48.144;17.098;2023-09-19T23:34:48;0.95;;;0.95;;
17997;SDS011;9124;48.144;17.098;2023-09-19T23:39:14;1.30;;;1.20;;
17997;SDS011;9124;48.144;17.098;2023-09-19T23:43:41;1.33;;;1.20;;
17997;SDS011;9124;48.144;17.098;2023-09-19T23:48:08;1.73;;;1.30;;
17997;SDS011;9124;48.144;17.098;2023-09-19T23:52:34;1.33;;;1.23;;
17997;SDS011;9124;48.144;17.098;2023-09-19T23:57:02;1.10;;;1.00;;
